createdAt,value
2017-06-12T00:00:34.269Z,47.70
2017-06-12T00:03:03.285Z,48.30
2017-06-12T00:05:31.516Z,48.30
2017-06-12T00:08:00.560Z,49.20
2017-06-12T00:10:28.817Z,48.70
2017-06-12T00:12:57.066Z,49.10
2017-06-12T00:15:25.388Z,49.20
2017-06-12T00:17:53.661Z,49.60
2017-06-12T00:20:21.942Z,49.50
2017-06-12T00:22:50.180Z,49.70
2017-06-12T00:25:19.306Z,50.40
2017-06-12T00:27:47.639Z,50.30
2017-06-12T00:30:16.642Z,51.30
2017-06-12T00:32:45.685Z,51.50
2017-06-12T00:35:13.926Z,51.50
2017-06-12T00:37:42.160Z,51.50
2017-06-12T00:40:10.499Z,51.60
2017-06-12T00:42:38.741Z,51.70
2017-06-12T00:45:07.098Z,51.70
2017-06-12T00:47:35.375Z,51.90
2017-06-12T00:50:03.602Z,52.10
2017-06-12T00:52:31.876Z,52.20
2017-06-12T00:55:00.206Z,52.30
2017-06-12T00:57:29.213Z,52.50
2017-06-12T00:59:58.225Z,52.80
2017-06-12T01:02:26.514Z,52.80
2017-06-12T01:04:54.906Z,53.00
2017-06-12T01:07:23.137Z,53.00
2017-06-12T01:09:51.413Z,53.20
2017-06-12T01:12:19.644Z,53.20
2017-06-12T01:14:47.997Z,52.90
2017-06-12T01:17:16.369Z,52.40
2017-06-12T01:19:44.610Z,52.40
2017-06-12T01:22:25.488Z,52.20
2017-06-12T01:24:53.791Z,52.20
2017-06-12T01:27:22.065Z,51.80
2017-06-12T01:29:50.317Z,51.80
2017-06-12T01:32:18.568Z,52.20
2017-06-12T01:34:46.793Z,52.30
2017-06-12T01:37:15.075Z,52.20
2017-06-12T01:39:43.309Z,52.30
2017-06-12T01:42:12.335Z,52.30
2017-06-12T01:44:40.641Z,52.30
2017-06-12T01:47:08.993Z,52.30
2017-06-12T01:49:37.221Z,52.40
2017-06-12T01:52:06.237Z,52.60
2017-06-12T01:54:34.501Z,52.60
2017-06-12T01:57:02.815Z,52.70
2017-06-12T01:59:31.092Z,52.90
2017-06-12T02:01:59.323Z,53.20
2017-06-12T02:04:27.554Z,53.20
2017-06-12T02:06:55.909Z,53.60
2017-06-12T02:09:24.187Z,53.90
2017-06-12T02:11:52.425Z,53.90
2017-06-12T02:14:21.481Z,53.70
2017-06-12T02:16:49.722Z,53.70
2017-06-12T02:19:17.973Z,53.90
2017-06-12T02:21:47.103Z,54.00
2017-06-12T02:24:15.383Z,53.30
2017-06-12T02:26:43.636Z,53.70
2017-06-12T02:29:12.131Z,53.90
2017-06-12T02:31:40.413Z,53.60
2017-06-12T02:34:08.645Z,53.80
2017-06-12T02:36:37.689Z,53.70
2017-06-12T02:39:05.930Z,53.70
2017-06-12T02:41:34.245Z,53.70
2017-06-12T02:44:02.511Z,53.60
2017-06-12T02:46:30.747Z,53.70
2017-06-12T02:48:59.756Z,53.70
2017-06-12T02:51:28.054Z,53.70
2017-06-12T02:53:56.380Z,54.00
2017-06-12T02:56:25.562Z,54.90
2017-06-12T02:58:53.801Z,54.00
2017-06-12T03:01:22.120Z,54.20
2017-06-12T03:03:50.336Z,54.90
2017-06-12T03:06:18.591Z,55.50
2017-06-12T03:08:46.861Z,55.80
2017-06-12T03:11:15.099Z,55.90
2017-06-12T03:13:43.372Z,55.90
2017-06-12T03:16:11.721Z,55.70
2017-06-12T03:18:39.961Z,55.90
2017-06-12T03:21:08.277Z,56.10
2017-06-12T03:23:36.707Z,56.40
2017-06-12T03:26:05.077Z,56.60
2017-06-12T03:28:33.320Z,56.70
2017-06-12T03:31:01.577Z,56.80
2017-06-12T03:33:29.820Z,56.80
2017-06-12T03:35:58.175Z,56.70
2017-06-12T03:38:26.420Z,56.90
2017-06-12T03:40:54.670Z,56.90
2017-06-12T03:43:22.939Z,57.10
2017-06-12T03:45:51.190Z,56.90
2017-06-12T03:48:19.521Z,57.00
2017-06-12T03:50:47.885Z,57.20
2017-06-12T03:53:16.143Z,57.30
2017-06-12T03:55:44.405Z,57.60
2017-06-12T03:58:12.718Z,57.60
2017-06-12T04:00:41.056Z,57.60
2017-06-12T04:03:10.069Z,57.90
2017-06-12T04:05:38.357Z,57.90
2017-06-12T04:08:06.601Z,57.80
2017-06-12T04:10:35.616Z,57.80
2017-06-12T04:13:04.004Z,57.80
2017-06-12T04:15:32.251Z,57.70
2017-06-12T04:18:00.516Z,57.70
2017-06-12T04:20:29.552Z,57.70
2017-06-12T04:22:57.794Z,57.60
2017-06-12T04:25:26.058Z,57.50
2017-06-12T04:27:55.077Z,57.50
2017-06-12T04:30:23.337Z,57.50
2017-06-12T04:32:52.341Z,57.40
2017-06-12T04:35:20.662Z,57.30
2017-06-12T04:37:48.909Z,57.20
2017-06-12T04:40:17.157Z,57.60
2017-06-12T04:42:45.469Z,57.50
2017-06-12T04:45:13.713Z,57.10
2017-06-12T04:47:41.951Z,57.40
2017-06-12T04:50:10.221Z,57.40
2017-06-12T04:52:38.473Z,57.20
2017-06-12T04:55:06.699Z,56.60
2017-06-12T04:57:35.741Z,56.10
2017-06-12T05:00:04.022Z,56.10
2017-06-12T05:02:32.265Z,55.50
2017-06-12T05:05:00.602Z,54.90
2017-06-12T05:07:29.419Z,54.50
2017-06-12T05:09:58.423Z,52.60
2017-06-12T05:12:26.730Z,52.60
2017-06-12T05:14:54.957Z,51.50
2017-06-12T05:17:23.956Z,48.80
2017-06-12T05:19:52.280Z,48.80
2017-06-12T05:22:20.597Z,48.40
2017-06-12T05:24:48.925Z,48.50
2017-06-12T05:27:17.190Z,48.50
2017-06-12T05:29:45.533Z,49.40
2017-06-12T05:32:13.840Z,49.80
2017-06-12T05:34:42.154Z,49.40
2017-06-12T05:37:10.402Z,49.70
2017-06-12T05:39:38.678Z,49.30
2017-06-12T05:42:06.952Z,49.70
2017-06-12T05:44:35.192Z,48.40
2017-06-12T05:47:04.203Z,47.50
2017-06-12T05:49:32.483Z,47.40
2017-06-12T05:52:00.772Z,48.00
2017-06-12T05:54:29.007Z,47.70
2017-06-12T05:56:58.025Z,47.70
2017-06-12T05:59:26.467Z,47.70
2017-06-12T06:01:55.539Z,47.60
2017-06-12T06:04:23.784Z,47.50
2017-06-12T06:06:52.858Z,47.70
2017-06-12T06:09:21.099Z,47.50
2017-06-12T06:11:49.438Z,46.00
2017-06-12T06:14:17.721Z,44.80
2017-06-12T06:16:45.983Z,44.10
2017-06-12T06:19:14.241Z,43.80
2017-06-12T06:21:42.485Z,44.60
2017-06-12T06:24:11.499Z,43.10
2017-06-12T06:26:40.518Z,42.00
2017-06-12T06:29:08.756Z,42.00
2017-06-12T06:31:37.763Z,38.30
2017-06-12T06:34:06.045Z,38.30
2017-06-12T06:36:34.280Z,37.00
2017-06-12T06:39:02.517Z,36.20
2017-06-12T06:41:30.775Z,34.20
2017-06-12T06:43:59.114Z,33.80
2017-06-12T06:46:27.385Z,32.60
2017-06-12T06:48:55.609Z,31.20
2017-06-12T06:51:23.853Z,30.90
2017-06-12T06:53:52.884Z,31.60
2017-06-12T06:56:21.120Z,31.60
2017-06-12T06:58:50.148Z,30.30
2017-06-12T07:01:18.430Z,29.80
2017-06-12T07:03:46.801Z,29.90
2017-06-12T07:06:15.049Z,30.70
2017-06-12T07:08:44.140Z,31.50
2017-06-12T07:11:13.153Z,30.30
2017-06-12T07:13:41.476Z,30.30
2017-06-12T07:16:09.715Z,30.40
2017-06-12T07:18:38.015Z,29.80
2017-06-12T07:21:06.332Z,30.60
2017-06-12T07:23:35.342Z,30.20
2017-06-12T07:26:03.609Z,30.10
2017-06-12T07:28:32.631Z,29.50
2017-06-12T07:31:00.846Z,29.50
2017-06-12T07:33:29.097Z,29.10
2017-06-12T07:35:57.532Z,28.20
2017-06-12T07:38:25.790Z,27.50
2017-06-12T07:40:54.097Z,26.90
2017-06-12T07:43:22.333Z,27.10
2017-06-12T07:45:50.622Z,27.70
2017-06-12T07:48:18.943Z,27.50
2017-06-12T07:50:47.185Z,27.30
2017-06-12T07:53:16.190Z,26.20
2017-06-12T07:55:44.568Z,26.20
2017-06-12T07:58:13.547Z,26.40
2017-06-12T08:00:41.777Z,26.40
2017-06-12T08:03:10.045Z,27.00
2017-06-12T08:05:38.401Z,26.40
2017-06-12T08:08:06.683Z,27.00
2017-06-12T08:10:35.056Z,26.20
2017-06-12T08:13:03.479Z,25.40
2017-06-12T08:15:31.733Z,24.40
2017-06-12T08:18:00.217Z,24.80
2017-06-12T08:20:28.444Z,25.50
2017-06-12T08:22:56.688Z,24.60
2017-06-12T08:25:24.930Z,24.80
2017-06-12T08:27:53.173Z,24.90
2017-06-12T08:30:21.431Z,25.20
2017-06-12T08:32:50.460Z,25.00
2017-06-12T08:35:18.693Z,25.00
2017-06-12T08:37:47.718Z,25.00
2017-06-12T08:40:15.973Z,25.00
2017-06-12T08:42:44.603Z,24.50
2017-06-12T08:45:12.910Z,24.30
2017-06-12T08:47:41.234Z,23.80
2017-06-12T08:50:09.520Z,23.90
2017-06-12T08:52:37.766Z,24.10
2017-06-12T08:55:06.024Z,23.70
2017-06-12T08:57:35.029Z,23.90
2017-06-12T09:00:03.470Z,23.80
2017-06-12T09:02:31.819Z,23.00
2017-06-12T09:05:00.056Z,23.50
2017-06-12T09:07:28.385Z,22.90
2017-06-12T09:09:56.641Z,23.40
2017-06-12T09:12:24.916Z,24.30
2017-06-12T09:14:53.141Z,24.90
2017-06-12T09:17:22.185Z,24.70
2017-06-12T09:19:51.021Z,24.20
2017-06-12T09:22:20.019Z,22.00
2017-06-12T09:24:49.049Z,22.80
2017-06-12T09:27:17.285Z,22.70
2017-06-12T09:29:46.294Z,23.20
2017-06-12T09:32:14.565Z,22.70
2017-06-12T09:34:44.057Z,22.50
2017-06-12T09:37:13.198Z,22.80
2017-06-12T09:39:41.582Z,22.80
2017-06-12T09:42:09.818Z,23.10
2017-06-12T09:44:38.896Z,23.00
2017-06-12T09:47:07.929Z,22.20
2017-06-12T09:49:36.245Z,22.20
2017-06-12T09:52:04.592Z,21.70
2017-06-12T09:54:32.840Z,21.30
2017-06-12T09:57:01.092Z,21.20
2017-06-12T09:59:29.318Z,20.30
2017-06-12T10:01:57.589Z,20.20
2017-06-12T10:04:25.828Z,20.10
2017-06-12T10:06:54.873Z,18.90
2017-06-12T10:09:23.137Z,18.80
2017-06-12T10:11:51.377Z,18.80
2017-06-12T10:14:20.468Z,19.10
2017-06-12T10:16:49.658Z,18.70
2017-06-12T10:19:18.667Z,17.60
2017-06-12T10:21:47.680Z,17.30
2017-06-12T10:24:15.935Z,17.30
2017-06-12T10:26:44.185Z,18.00
2017-06-12T10:29:12.481Z,17.40
2017-06-12T10:31:40.760Z,16.90
2017-06-12T10:34:09.915Z,16.00
2017-06-12T10:36:38.211Z,16.00
2017-06-12T10:39:06.552Z,15.70
2017-06-12T10:41:34.888Z,15.70
2017-06-12T10:44:03.878Z,15.30
2017-06-12T10:46:32.154Z,15.30
2017-06-12T10:49:01.150Z,14.60
2017-06-12T10:51:29.553Z,14.60
2017-06-12T10:53:57.813Z,14.90
2017-06-12T10:56:26.054Z,14.90
2017-06-12T10:58:55.052Z,14.70
2017-06-12T11:01:23.396Z,14.10
2017-06-12T11:03:51.640Z,13.90
2017-06-12T11:06:19.887Z,14.60
2017-06-12T11:08:48.151Z,13.80
2017-06-12T11:11:17.162Z,13.20
2017-06-12T11:13:45.402Z,12.60
2017-06-12T11:16:13.675Z,12.80
2017-06-12T11:18:42.024Z,13.10
2017-06-12T11:21:10.299Z,13.00
2017-06-12T11:23:38.560Z,13.30
2017-06-12T11:26:06.832Z,13.20
2017-06-12T11:28:46.965Z,12.00
2017-06-12T11:31:15.296Z,12.30
2017-06-12T11:33:43.533Z,12.60
2017-06-12T11:36:11.841Z,12.60
2017-06-12T11:38:40.306Z,12.80
2017-06-12T11:41:08.546Z,12.30
2017-06-12T11:43:38.222Z,13.00
2017-06-12T11:46:08.693Z,13.00
2017-06-12T11:48:37.755Z,12.90
2017-06-12T11:51:07.671Z,13.20
2017-06-12T11:53:36.764Z,13.20
2017-06-12T11:56:05.613Z,13.40
2017-06-12T11:58:34.446Z,13.40
2017-06-12T12:01:02.693Z,14.40
2017-06-12T12:03:31.052Z,14.60
2017-06-12T12:05:59.297Z,15.10
2017-06-12T12:08:28.345Z,17.60
2017-06-12T12:10:57.208Z,17.60
2017-06-12T12:13:26.756Z,18.50
2017-06-12T12:15:55.545Z,18.50
2017-06-12T12:18:24.842Z,18.30
2017-06-12T12:20:53.285Z,19.00
2017-06-12T12:23:21.520Z,19.10
2017-06-12T12:25:49.830Z,19.60
2017-06-12T12:28:18.073Z,20.30
2017-06-12T12:30:46.305Z,21.00
2017-06-12T12:33:14.658Z,21.70
2017-06-12T12:35:42.954Z,22.60
2017-06-12T12:38:11.185Z,22.40
2017-06-12T12:40:39.488Z,21.90
2017-06-12T12:43:07.721Z,22.50
2017-06-12T12:45:36.897Z,21.30
2017-06-12T12:48:05.151Z,21.20
2017-06-12T12:50:33.403Z,21.10
2017-06-12T12:53:01.664Z,22.10
2017-06-12T12:55:29.958Z,22.30
2017-06-12T12:57:58.218Z,21.80
2017-06-12T13:00:26.457Z,22.60
2017-06-12T13:02:55.474Z,20.20
2017-06-12T13:05:23.712Z,20.20
2017-06-12T13:07:51.958Z,20.30
2017-06-12T13:10:20.229Z,19.80
2017-06-12T13:12:48.525Z,19.50
2017-06-12T13:15:16.846Z,20.40
2017-06-12T13:17:45.156Z,21.30
2017-06-12T13:20:13.409Z,22.10
2017-06-12T13:22:41.666Z,22.60
2017-06-12T13:25:10.686Z,24.40
2017-06-12T13:27:39.020Z,24.40
2017-06-12T13:30:07.243Z,24.30
2017-06-12T13:32:35.486Z,23.40
2017-06-12T13:35:03.749Z,24.20
2017-06-12T13:37:32.765Z,23.80
2017-06-12T13:40:01.017Z,23.80
2017-06-12T13:42:30.048Z,22.80
2017-06-12T13:44:58.373Z,22.80
2017-06-12T13:47:26.614Z,23.60
2017-06-12T13:49:54.862Z,24.00
2017-06-12T13:52:23.113Z,24.00
2017-06-12T13:54:52.705Z,23.40
2017-06-12T13:57:22.225Z,24.50
2017-06-12T13:59:51.281Z,24.20
2017-06-12T14:02:20.436Z,24.70
2017-06-12T14:04:49.491Z,24.60
2017-06-12T14:07:18.178Z,25.10
2017-06-12T14:09:46.431Z,25.50
2017-06-12T14:12:14.735Z,24.90
2017-06-12T14:14:43.761Z,22.50
2017-06-12T14:17:12.081Z,22.80
2017-06-12T14:19:40.347Z,22.80
2017-06-12T14:22:08.572Z,22.30
2017-06-12T14:24:36.890Z,23.10
2017-06-12T14:27:05.135Z,22.30
2017-06-12T14:29:34.139Z,23.30
2017-06-12T14:32:02.379Z,23.30
2017-06-12T14:34:31.397Z,24.60
2017-06-12T14:36:59.637Z,24.60
2017-06-12T14:39:27.965Z,24.30
2017-06-12T14:41:56.226Z,24.40
2017-06-12T14:44:24.514Z,24.40
2017-06-12T14:46:53.167Z,24.50
2017-06-12T14:49:21.548Z,24.00
2017-06-12T14:51:51.373Z,24.70
2017-06-12T14:54:20.887Z,24.80
2017-06-12T14:56:49.145Z,24.80
2017-06-12T14:59:17.408Z,24.30
2017-06-12T15:01:46.404Z,24.70
2017-06-12T15:04:15.484Z,24.60
2017-06-12T15:06:43.727Z,24.50
2017-06-12T15:09:11.971Z,25.00
2017-06-12T15:11:40.249Z,24.70
2017-06-12T15:14:08.507Z,24.50
2017-06-12T15:16:36.742Z,24.60
2017-06-12T15:19:05.047Z,24.80
2017-06-12T15:21:33.263Z,25.10
2017-06-12T15:24:01.516Z,25.80
2017-06-12T15:26:29.765Z,25.60
2017-06-12T15:28:58.785Z,24.80
2017-06-12T15:31:27.040Z,24.80
2017-06-12T15:33:55.357Z,24.80
2017-06-12T15:36:23.689Z,25.30
2017-06-12T15:38:51.954Z,25.60
2017-06-12T15:41:20.191Z,25.60
2017-06-12T15:43:48.453Z,26.20
2017-06-12T15:46:16.704Z,26.50
2017-06-12T15:48:45.077Z,26.30
2017-06-12T15:51:14.076Z,26.60
2017-06-12T15:53:42.318Z,26.60
2017-06-12T15:56:10.588Z,26.00
2017-06-12T15:58:39.076Z,26.10
2017-06-12T16:01:07.372Z,25.90
2017-06-12T16:03:36.372Z,26.20
2017-06-12T16:06:04.621Z,26.20
2017-06-12T16:08:33.254Z,26.00
2017-06-12T16:11:01.545Z,26.20
2017-06-12T16:13:29.899Z,26.60
2017-06-12T16:15:58.138Z,27.00
2017-06-12T16:18:26.372Z,27.80
2017-06-12T16:20:54.685Z,28.50
2017-06-12T16:23:23.033Z,29.10
2017-06-12T16:25:51.261Z,29.20
2017-06-12T16:28:19.503Z,29.60
2017-06-12T16:30:47.758Z,29.90
2017-06-12T16:33:16.124Z,29.60
2017-06-12T16:35:44.384Z,29.30
2017-06-12T16:38:12.625Z,29.70
2017-06-12T16:40:41.773Z,28.70
2017-06-12T16:43:10.217Z,28.70
2017-06-12T16:45:38.484Z,28.50
2017-06-12T16:48:06.805Z,29.20
2017-06-12T16:50:35.075Z,30.00
2017-06-12T16:53:03.340Z,29.80
2017-06-12T16:55:31.659Z,30.10
2017-06-12T16:57:59.930Z,30.70
2017-06-12T17:00:28.277Z,30.90
2017-06-12T17:02:56.542Z,31.20
2017-06-12T17:05:24.808Z,31.10
2017-06-12T17:07:53.308Z,31.80
2017-06-12T17:10:21.597Z,31.40
2017-06-12T17:12:49.958Z,31.00
2017-06-12T17:15:18.249Z,31.10
2017-06-12T17:17:46.623Z,31.30
2017-06-12T17:20:14.880Z,31.50
2017-06-12T17:22:43.221Z,31.40
2017-06-12T17:25:12.454Z,32.10
2017-06-12T17:27:41.491Z,32.20
2017-06-12T17:30:09.785Z,32.10
2017-06-12T17:32:38.119Z,32.10
2017-06-12T17:35:06.493Z,33.30
2017-06-12T17:37:34.757Z,33.40
2017-06-12T17:40:03.003Z,34.10
2017-06-12T17:42:31.317Z,33.80
2017-06-12T17:44:59.586Z,33.70
2017-06-12T17:47:27.842Z,33.80
2017-06-12T17:49:56.088Z,33.60
2017-06-12T17:52:25.110Z,34.20
2017-06-12T17:54:53.366Z,34.30
2017-06-12T17:57:22.504Z,34.50
2017-06-12T17:59:50.757Z,34.40
2017-06-12T18:02:18.997Z,34.50
2017-06-12T18:04:47.257Z,35.10
2017-06-12T18:07:15.493Z,35.10
2017-06-12T18:09:43.768Z,35.70
2017-06-12T18:12:12.029Z,35.30
2017-06-12T18:14:40.331Z,35.70
2017-06-12T18:17:08.597Z,36.00
2017-06-12T18:19:36.913Z,36.30
2017-06-12T18:22:05.258Z,36.30
2017-06-12T18:24:33.508Z,36.30
2017-06-12T18:27:01.753Z,35.90
2017-06-12T18:29:30.025Z,36.20
2017-06-12T18:31:58.257Z,36.00
2017-06-12T18:34:26.503Z,36.50
2017-06-12T18:36:55.573Z,37.10
2017-06-12T18:39:23.846Z,37.00
2017-06-12T18:41:52.117Z,37.00
2017-06-12T18:44:20.357Z,37.10
2017-06-12T18:46:48.694Z,37.00
2017-06-12T18:49:16.973Z,36.90
2017-06-12T18:51:45.986Z,37.10
2017-06-12T18:54:14.259Z,37.10
2017-06-12T18:56:42.508Z,37.10
2017-06-12T18:59:11.618Z,37.20
2017-06-12T19:01:39.884Z,37.10
2017-06-12T19:04:08.881Z,37.30
2017-06-12T19:06:37.918Z,37.70
2017-06-12T19:09:06.163Z,37.60
2017-06-12T19:11:34.462Z,37.60
2017-06-12T19:14:02.738Z,37.50
2017-06-12T19:16:30.988Z,37.60
2017-06-12T19:18:59.224Z,37.70
2017-06-12T19:21:27.562Z,37.80
2017-06-12T19:23:55.810Z,37.70
2017-06-12T19:26:24.042Z,37.30
2017-06-12T19:28:52.285Z,37.50
2017-06-12T19:31:20.543Z,37.40
2017-06-12T19:33:48.783Z,37.40
2017-06-12T19:36:17.036Z,37.60
2017-06-12T19:38:45.310Z,37.50
2017-06-12T19:41:13.661Z,36.90
2017-06-12T19:43:42.006Z,37.10
2017-06-12T19:46:10.233Z,37.30
2017-06-12T19:48:38.597Z,37.30
2017-06-12T19:51:06.869Z,37.20
2017-06-12T19:53:35.121Z,37.40
2017-06-12T19:56:03.437Z,37.60
2017-06-12T19:58:31.746Z,37.60
2017-06-12T20:00:59.989Z,37.30
2017-06-12T20:03:28.238Z,37.50
2017-06-12T20:05:56.562Z,37.50
2017-06-12T20:08:24.790Z,37.80
2017-06-12T20:10:53.093Z,37.70
2017-06-12T20:13:21.454Z,38.30
2017-06-12T20:15:49.881Z,37.60
2017-06-12T20:18:18.116Z,37.50
2017-06-12T20:20:46.414Z,37.60
2017-06-12T20:23:14.645Z,37.80
2017-06-12T20:25:43.033Z,37.90
2017-06-12T20:28:11.277Z,37.80
2017-06-12T20:30:40.276Z,38.30
2017-06-12T20:33:08.554Z,38.30
2017-06-12T20:35:36.825Z,38.30
2017-06-12T20:38:05.146Z,38.20
2017-06-12T20:40:33.555Z,38.00
2017-06-12T20:43:01.998Z,38.30
2017-06-12T20:45:30.321Z,38.40
2017-06-12T20:47:58.524Z,38.40
2017-06-12T20:50:26.798Z,38.40
2017-06-12T21:10:40.137Z,38.80
2017-06-12T21:30:54.013Z,39.60
2017-06-12T21:51:07.321Z,39.90
2017-06-12T21:53:36.358Z,40.10
2017-06-12T22:10:53.786Z,40.80
2017-06-12T22:31:06.999Z,41.00
2017-06-12T22:51:20.839Z,41.60
2017-06-12T22:53:49.081Z,41.90
2017-06-12T22:56:18.085Z,41.80
2017-06-12T22:58:46.348Z,41.80
2017-06-12T23:01:15.364Z,42.50
2017-06-12T23:03:43.633Z,42.40
2017-06-12T23:06:11.869Z,42.50
2017-06-12T23:08:40.226Z,42.60
2017-06-12T23:11:08.538Z,42.40
2017-06-12T23:13:37.553Z,42.60
2017-06-12T23:16:06.596Z,42.50
2017-06-12T23:18:34.825Z,42.50
2017-06-12T23:21:03.063Z,42.60
2017-06-12T23:23:31.305Z,42.80
2017-06-12T23:26:05.194Z,42.80
2017-06-12T23:28:33.498Z,43.00
2017-06-12T23:31:01.728Z,43.20
2017-06-12T23:33:30.046Z,43.10
2017-06-12T23:35:58.296Z,43.40
2017-06-12T23:38:26.545Z,43.20
2017-06-12T23:40:55.576Z,43.40
2017-06-12T23:43:23.813Z,43.40
2017-06-12T23:45:52.856Z,43.80
2017-06-12T23:48:21.093Z,43.70
2017-06-12T23:50:49.397Z,43.80
2017-06-12T23:53:17.654Z,44.00
2017-06-12T23:55:45.897Z,43.80
2017-06-12T23:58:14.220Z,43.90
